createdAt,value
2019-01-03T00:02:34.096Z,-2.78
2019-01-03T00:05:31.191Z,-2.75
2019-01-03T00:08:20.086Z,-2.76
2019-01-03T00:11:19.113Z,-2.75
2019-01-03T00:14:07.624Z,-2.72
2019-01-03T00:17:03.599Z,-2.66
2019-01-03T00:20:08.823Z,-2.68
2019-01-03T00:23:17.468Z,-2.65
2019-01-03T00:26:10.425Z,-2.58
2019-01-03T00:29:07.165Z,-2.54
2019-01-03T00:32:01.409Z,-2.49
2019-01-03T00:34:52.142Z,-2.48
2019-01-03T00:37:51.424Z,-2.46
2019-01-03T00:40:56.735Z,-2.44
2019-01-03T00:43:45.986Z,-2.41
2019-01-03T00:46:25.653Z,-2.43
2019-01-03T00:49:27.904Z,-2.43
2019-01-03T00:52:13.403Z,-2.39
2019-01-03T00:55:22.874Z,-2.42
2019-01-03T00:58:08.210Z,-2.42
2019-01-03T01:01:00.712Z,-2.42
2019-01-03T01:03:50.869Z,-2.40
2019-01-03T01:06:41.192Z,-2.46
2019-01-03T01:09:45.186Z,-2.43
2019-01-03T01:12:40.508Z,-2.41
2019-01-03T01:15:29.776Z,-2.41
2019-01-03T01:18:20.424Z,-2.43
2019-01-03T01:21:28.683Z,-2.49
2019-01-03T01:24:26.595Z,-2.49
2019-01-03T01:27:25.949Z,-2.55
2019-01-03T01:30:24.971Z,-2.56
2019-01-03T01:33:13.811Z,-2.57
2019-01-03T01:36:16.264Z,-2.57
2019-01-03T01:39:06.321Z,-2.60
2019-01-03T01:41:58.046Z,-2.62
2019-01-03T01:44:57.197Z,-2.65
2019-01-03T01:47:45.939Z,-2.67
2019-01-03T01:50:34.870Z,-2.67
2019-01-03T01:53:13.784Z,-2.66
2019-01-03T01:56:02.536Z,-2.67
2019-01-03T01:59:01.173Z,-2.65
2019-01-03T02:01:50.030Z,-2.65
2019-01-03T02:04:52.076Z,-2.69
2019-01-03T02:07:42.119Z,-2.69
2019-01-03T02:10:26.757Z,-2.69
2019-01-03T02:13:15.816Z,-2.75
2019-01-03T02:16:08.220Z,-2.73
2019-01-03T02:19:00.902Z,-2.74
2019-01-03T02:21:49.957Z,-2.74
2019-01-03T02:24:38.871Z,-2.79
2019-01-03T02:27:38.268Z,-2.76
2019-01-03T02:30:27.307Z,-2.76
2019-01-03T02:33:16.592Z,-2.77
2019-01-03T02:36:00.372Z,-2.75
2019-01-03T02:38:48.913Z,-2.81
2019-01-03T02:41:43.951Z,-2.80
2019-01-03T02:44:39.937Z,-2.79
2019-01-03T02:47:39.195Z,-2.84
2019-01-03T02:50:29.270Z,-2.82
2019-01-03T02:53:18.015Z,-2.88
2019-01-03T02:56:11.832Z,-2.89
2019-01-03T02:59:01.096Z,-2.88
2019-01-03T03:02:09.669Z,-2.92
2019-01-03T03:05:03.757Z,-2.92
2019-01-03T03:07:59.564Z,-2.97
2019-01-03T03:10:58.828Z,-2.94
2019-01-03T03:13:47.502Z,-2.99
2019-01-03T03:16:40.420Z,-2.98
2019-01-03T03:19:19.309Z,-3.07
2019-01-03T03:22:09.501Z,-3.09
2019-01-03T03:25:09.153Z,-3.11
2019-01-03T03:27:58.020Z,-3.13
2019-01-03T03:31:04.158Z,-3.13
2019-01-03T03:33:54.052Z,-3.12
2019-01-03T03:36:49.983Z,-3.15
2019-01-03T03:39:46.003Z,-3.22
2019-01-03T03:42:41.899Z,-3.22
2019-01-03T03:45:30.866Z,-3.23
2019-01-03T03:48:18.936Z,-3.23
2019-01-03T03:51:15.035Z,-3.28
2019-01-03T03:54:05.236Z,-3.26
2019-01-03T03:56:54.073Z,-3.22
2019-01-03T03:59:59.255Z,-3.23
2019-01-03T04:02:49.316Z,-3.23
2019-01-03T04:05:48.802Z,-3.24
2019-01-03T04:08:39.694Z,-3.22
2019-01-03T04:11:28.474Z,-3.22
2019-01-03T04:14:16.030Z,-3.24
2019-01-03T04:17:06.028Z,-3.25
2019-01-03T04:20:02.459Z,-3.25
2019-01-03T04:22:51.472Z,-3.24
2019-01-03T04:25:52.082Z,-3.26
2019-01-03T04:28:52.896Z,-3.27
2019-01-03T04:31:36.237Z,-3.31
2019-01-03T04:34:25.143Z,-3.30
2019-01-03T04:37:14.403Z,-3.31
2019-01-03T04:40:07.430Z,-3.31
2019-01-03T04:42:56.195Z,-3.33
2019-01-03T04:45:43.725Z,-3.33
2019-01-03T04:48:38.672Z,-3.32
2019-01-03T04:51:27.486Z,-3.34
2019-01-03T04:54:20.790Z,-3.32
2019-01-03T04:57:09.571Z,-3.33
2019-01-03T05:00:00.360Z,-3.34
2019-01-03T05:02:53.583Z,-3.33
2019-01-03T05:05:46.421Z,-3.35
2019-01-03T05:08:35.152Z,-3.30
2019-01-03T05:11:24.248Z,-3.48
2019-01-03T05:14:13.736Z,-3.44
2019-01-03T05:17:02.697Z,-3.34
2019-01-03T05:19:51.338Z,-3.32
2019-01-03T05:22:40.987Z,-3.34
2019-01-03T05:25:26.843Z,-3.36
2019-01-03T05:28:25.923Z,-3.40
2019-01-03T05:31:21.805Z,-3.44
2019-01-03T05:34:27.250Z,-3.46
2019-01-03T05:37:17.524Z,-3.46
2019-01-03T05:40:25.370Z,-3.47
2019-01-03T05:43:15.368Z,-3.51
2019-01-03T05:46:20.193Z,-3.62
2019-01-03T05:49:08.695Z,-3.64
2019-01-03T05:51:57.812Z,-3.69
2019-01-03T05:54:59.960Z,-3.66
2019-01-03T05:57:48.869Z,-3.71
2019-01-03T06:00:38.989Z,-3.74
2019-01-03T06:03:43.027Z,-3.71
2019-01-03T06:06:32.175Z,-3.71
2019-01-03T06:09:24.721Z,-3.69
2019-01-03T06:12:13.961Z,-3.68
2019-01-03T06:15:06.930Z,-3.66
2019-01-03T06:18:00.171Z,-3.63
2019-01-03T06:20:59.781Z,-3.66
2019-01-03T06:23:55.699Z,-3.63
2019-01-03T06:26:51.824Z,-3.60
2019-01-03T06:29:47.943Z,-3.62
2019-01-03T06:32:44.096Z,-3.63
2019-01-03T06:35:26.796Z,-3.63
2019-01-03T06:38:13.237Z,-3.66
2019-01-03T06:41:00.516Z,-3.63
2019-01-03T06:43:50.573Z,-3.64
2019-01-03T06:46:39.590Z,-3.64
2019-01-03T06:49:36.195Z,-3.64
2019-01-03T06:52:25.715Z,-3.63
2019-01-03T06:55:16.014Z,-3.62
2019-01-03T06:58:08.804Z,-3.59
2019-01-03T07:01:05.039Z,-3.61
2019-01-03T07:04:13.475Z,-3.63
2019-01-03T07:07:12.889Z,-3.63
2019-01-03T07:10:08.936Z,-3.63
2019-01-03T07:13:09.222Z,-3.64
2019-01-03T07:16:02.477Z,-3.68
2019-01-03T07:18:56.737Z,-3.62
2019-01-03T07:21:49.963Z,-3.61
2019-01-03T07:24:39.621Z,-3.60
2019-01-03T07:27:32.600Z,-3.60
2019-01-03T07:30:37.748Z,-3.60
2019-01-03T07:33:26.522Z,-3.58
2019-01-03T07:36:15.218Z,-3.55
2019-01-03T07:39:04.201Z,-3.53
2019-01-03T07:41:55.295Z,-3.49
2019-01-03T07:44:44.179Z,-3.47
2019-01-03T07:47:53.881Z,-3.47
2019-01-03T07:50:43.887Z,-3.44
2019-01-03T07:53:33.082Z,-3.44
2019-01-03T07:56:29.016Z,-3.40
2019-01-03T07:59:35.348Z,-3.36
2019-01-03T08:02:24.281Z,-3.37
2019-01-03T08:05:17.602Z,-3.27
2019-01-03T08:08:06.695Z,-3.28
2019-01-03T08:10:57.354Z,-3.33
2019-01-03T08:13:45.436Z,-3.25
2019-01-03T08:16:53.696Z,-3.21
2019-01-03T08:19:43.047Z,-3.20
2019-01-03T08:22:44.635Z,-3.20
2019-01-03T08:25:33.939Z,-3.09
2019-01-03T08:28:43.699Z,-3.05
2019-01-03T08:31:35.740Z,-3.14
2019-01-03T08:34:41.356Z,-3.03
2019-01-03T08:37:40.435Z,-2.99
2019-01-03T08:40:35.956Z,-2.96
2019-01-03T08:43:27.204Z,-2.89
2019-01-03T08:46:20.313Z,-2.89
2019-01-03T08:49:13.499Z,-2.80
2019-01-03T08:52:02.224Z,-2.86
2019-01-03T08:55:01.680Z,-2.89
2019-01-03T08:58:03.845Z,-2.84
2019-01-03T09:00:53.763Z,-2.85
2019-01-03T09:03:43.741Z,-2.79
2019-01-03T09:06:32.469Z,-2.85
2019-01-03T09:09:21.138Z,-2.81
2019-01-03T09:12:20.351Z,-2.76
2019-01-03T09:15:09.081Z,-2.71
2019-01-03T09:18:09.557Z,-2.62
2019-01-03T09:20:56.794Z,-2.63
2019-01-03T09:23:52.942Z,-2.61
2019-01-03T09:26:46.104Z,-2.65
2019-01-03T09:29:39.303Z,-2.70
2019-01-03T09:32:45.608Z,-2.64
2019-01-03T09:35:50.871Z,-2.64
2019-01-03T09:38:43.800Z,-2.55
2019-01-03T09:41:32.754Z,-2.59
2019-01-03T09:44:27.124Z,-2.62
2019-01-03T09:46:58.189Z,-2.56
2019-01-03T09:49:29.437Z,-2.55
2019-01-03T09:52:00.525Z,-2.58
2019-01-03T09:54:31.710Z,-2.49
2019-01-03T09:57:03.101Z,-2.58
2019-01-03T09:59:34.719Z,-2.47
2019-01-03T10:02:06.319Z,-2.49
2019-01-03T10:04:37.435Z,-2.53
2019-01-03T10:07:08.517Z,-2.54
2019-01-03T10:09:39.854Z,-2.52
2019-01-03T10:12:10.907Z,-2.51
2019-01-03T10:14:42.311Z,-2.50
2019-01-03T10:17:15.048Z,-2.51
2019-01-03T10:19:48.050Z,-2.61
2019-01-03T10:22:19.118Z,-2.56
2019-01-03T10:24:50.404Z,-2.52
2019-01-03T10:27:21.668Z,-2.49
2019-01-03T10:29:53.013Z,-2.38
2019-01-03T10:32:24.332Z,-2.39
2019-01-03T10:34:55.544Z,-2.33
2019-01-03T10:37:27.526Z,-2.18
2019-01-03T10:39:58.778Z,-2.18
2019-01-03T10:42:29.868Z,-2.16
2019-01-03T10:45:00.852Z,-2.21
2019-01-03T10:47:32.275Z,-2.13
2019-01-03T10:50:05.335Z,-2.08
2019-01-03T10:52:36.525Z,-2.14
2019-01-03T10:55:09.112Z,-2.19
2019-01-03T10:57:40.082Z,-2.12
2019-01-03T11:00:11.246Z,-2.17
2019-01-03T11:02:42.527Z,-2.15
2019-01-03T11:05:13.542Z,-2.12
2019-01-03T11:07:44.501Z,-2.22
2019-01-03T11:10:15.869Z,-2.20
2019-01-03T11:12:47.228Z,-2.16
2019-01-03T11:15:18.428Z,-2.12
2019-01-03T11:17:49.583Z,-2.14
2019-01-03T11:20:20.759Z,-2.09
2019-01-03T11:22:52.116Z,-2.07
2019-01-03T11:25:23.434Z,-2.08
2019-01-03T11:27:55.055Z,-1.99
2019-01-03T11:30:27.528Z,-2.00
2019-01-03T11:32:58.601Z,-1.98
2019-01-03T11:35:29.806Z,-1.94
2019-01-03T11:38:00.951Z,-1.88
2019-01-03T11:40:32.054Z,-2.07
2019-01-03T11:43:03.610Z,-2.00
2019-01-03T11:45:34.640Z,-2.00
2019-01-03T11:48:06.013Z,-2.08
2019-01-03T11:50:38.621Z,-2.08
2019-01-03T11:53:09.712Z,-2.86
2019-01-03T11:55:41.126Z,-2.98
2019-01-03T11:58:12.889Z,-2.97
2019-01-03T12:00:44.264Z,-3.23
2019-01-03T12:03:15.326Z,-3.21
2019-01-03T12:05:46.419Z,-3.05
2019-01-03T12:08:17.688Z,-2.98
2019-01-03T12:10:48.960Z,-2.86
2019-01-03T12:13:20.252Z,-2.75
2019-01-03T12:15:51.664Z,-2.64
2019-01-03T12:18:22.896Z,-2.44
2019-01-03T12:20:54.387Z,-2.41
2019-01-03T12:23:25.765Z,-2.34
2019-01-03T12:25:57.149Z,-2.30
2019-01-03T12:28:29.867Z,-2.20
2019-01-03T12:31:02.058Z,-2.16
2019-01-03T12:33:33.371Z,-2.22
2019-01-03T12:36:06.176Z,-2.72
2019-01-03T12:38:38.461Z,-2.98
2019-01-03T12:41:09.534Z,-3.06
2019-01-03T12:43:40.745Z,-3.08
2019-01-03T12:46:11.863Z,-2.99
2019-01-03T12:48:45.553Z,-2.92
2019-01-03T12:51:15.819Z,-2.85
2019-01-03T12:53:46.907Z,-2.51
2019-01-03T12:56:18.007Z,-2.21
2019-01-03T12:58:49.165Z,-2.09
2019-01-03T13:01:20.413Z,-2.11
2019-01-03T13:03:51.478Z,-2.51
2019-01-03T13:06:23.029Z,-3.00
2019-01-03T13:08:56.865Z,-3.36
2019-01-03T13:11:29.070Z,-3.26
2019-01-03T13:14:00.574Z,-3.28
2019-01-03T13:16:31.924Z,-3.34
2019-01-03T13:19:03.066Z,-3.20
2019-01-03T13:21:34.375Z,-3.18
2019-01-03T13:24:05.626Z,-3.11
2019-01-03T13:26:37.313Z,-3.11
2019-01-03T13:29:08.380Z,-3.06
2019-01-03T13:31:39.612Z,-3.20
2019-01-03T13:34:10.835Z,-3.77
2019-01-03T13:36:41.837Z,-3.89
2019-01-03T13:39:12.916Z,-3.81
2019-01-03T13:41:45.078Z,-3.76
2019-01-03T13:44:16.235Z,-3.73
2019-01-03T13:46:47.381Z,-3.71
2019-01-03T13:49:18.434Z,-3.67
2019-01-03T13:51:49.472Z,-3.58
2019-01-03T13:54:20.710Z,-3.53
2019-01-03T13:56:51.997Z,-3.43
2019-01-03T13:59:24.525Z,-3.30
2019-01-03T14:01:55.533Z,-3.21
2019-01-03T14:04:26.794Z,-3.11
2019-01-03T14:06:57.921Z,-3.06
2019-01-03T14:09:28.847Z,-3.02
2019-01-03T14:12:00.912Z,-3.32
2019-01-03T14:14:32.476Z,-3.54
2019-01-03T14:17:03.978Z,-3.66
2019-01-03T14:19:34.942Z,-3.70
2019-01-03T14:22:06.811Z,-3.74
2019-01-03T14:24:38.497Z,-3.76
2019-01-03T14:27:09.846Z,-3.76
2019-01-03T14:29:41.098Z,-3.80
2019-01-03T14:32:12.346Z,-3.76
2019-01-03T14:34:43.452Z,-3.79
2019-01-03T14:37:14.646Z,-3.75
2019-01-03T14:39:46.808Z,-3.72
2019-01-03T14:42:17.959Z,-3.70
2019-01-03T14:44:49.315Z,-3.69
2019-01-03T14:47:20.502Z,-3.68
2019-01-03T14:49:52.186Z,-3.68
2019-01-03T14:52:23.451Z,-3.67
2019-01-03T14:54:55.050Z,-3.64
2019-01-03T14:57:26.323Z,-3.62
2019-01-03T14:59:57.488Z,-3.61
2019-01-03T15:02:28.882Z,-3.60
2019-01-03T15:05:01.155Z,-3.62
2019-01-03T15:07:32.449Z,-3.64
2019-01-03T15:10:04.763Z,-3.65
2019-01-03T15:12:36.166Z,-3.66
2019-01-03T15:15:08.986Z,-3.69
2019-01-03T15:17:40.286Z,-3.70
2019-01-03T15:20:12.353Z,-3.73
2019-01-03T15:22:43.585Z,-3.72
2019-01-03T15:25:14.781Z,-3.74
2019-01-03T15:27:46.605Z,-3.75
2019-01-03T15:30:17.640Z,-3.73
2019-01-03T15:32:49.240Z,-3.69
2019-01-03T15:35:20.458Z,-3.72
2019-01-03T15:37:51.740Z,-3.70
2019-01-03T15:40:23.018Z,-3.72
2019-01-03T15:42:54.408Z,-3.67
2019-01-03T15:45:25.850Z,-3.66
2019-01-03T15:47:57.013Z,-3.64
2019-01-03T15:50:28.073Z,-3.64
2019-01-03T15:52:59.232Z,-3.61
2019-01-03T15:55:30.511Z,-3.60
2019-01-03T15:58:01.809Z,-3.59
2019-01-03T16:00:32.891Z,-3.60
2019-01-03T16:03:05.442Z,-3.60
2019-01-03T16:05:36.731Z,-3.61
2019-01-03T16:08:07.825Z,-3.63
2019-01-03T16:10:39.158Z,-3.61
2019-01-03T16:13:10.670Z,-3.59
2019-01-03T16:15:42.074Z,-3.61
2019-01-03T16:18:13.716Z,-3.61
2019-01-03T16:20:44.725Z,-3.63
2019-01-03T16:23:15.911Z,-3.65
2019-01-03T16:25:47.101Z,-3.67
2019-01-03T16:28:18.148Z,-3.66
2019-01-03T16:30:49.234Z,-3.63
2019-01-03T16:33:20.468Z,-3.63
2019-01-03T16:35:51.420Z,-3.61
2019-01-03T16:38:22.578Z,-3.57
2019-01-03T16:40:53.667Z,-3.59
2019-01-03T16:43:24.795Z,-3.59
2019-01-03T16:45:56.011Z,-3.58
2019-01-03T16:48:27.454Z,-3.61
2019-01-03T16:50:58.490Z,-3.60
2019-01-03T16:53:29.844Z,-3.58
2019-01-03T16:56:01.695Z,-3.58
2019-01-03T16:58:32.870Z,-3.56
2019-01-03T17:01:04.311Z,-3.59
2019-01-03T17:03:35.576Z,-3.62
2019-01-03T17:06:06.721Z,-3.65
2019-01-03T17:08:37.791Z,-3.69
2019-01-03T17:11:09.094Z,-3.68
2019-01-03T17:13:42.296Z,-3.61
2019-01-03T17:16:13.766Z,-3.62
2019-01-03T17:18:46.228Z,-3.61
2019-01-03T17:21:17.465Z,-3.59
2019-01-03T17:23:49.368Z,-3.56
2019-01-03T17:26:20.547Z,-3.59
2019-01-03T17:28:52.761Z,-3.55
2019-01-03T17:31:26.478Z,-3.56
2019-01-03T17:33:57.631Z,-3.53
2019-01-03T17:36:28.700Z,-3.51
2019-01-03T17:38:59.830Z,-3.52
2019-01-03T17:41:30.921Z,-3.51
2019-01-03T17:44:02.253Z,-3.51
2019-01-03T17:46:33.375Z,-3.50
2019-01-03T17:49:04.611Z,-3.53
2019-01-03T17:51:35.767Z,-3.57
2019-01-03T17:54:06.895Z,-3.55
2019-01-03T17:56:39.149Z,-3.53
2019-01-03T17:59:10.564Z,-3.51
2019-01-03T18:01:42.187Z,-3.54
2019-01-03T18:04:13.410Z,-3.54
2019-01-03T18:06:44.448Z,-3.51
2019-01-03T18:09:15.943Z,-3.54
2019-01-03T18:11:46.951Z,-3.53
2019-01-03T18:14:18.803Z,-3.50
2019-01-03T18:16:50.380Z,-3.48
2019-01-03T18:19:21.618Z,-3.47
2019-01-03T18:21:52.687Z,-3.46
2019-01-03T18:24:23.968Z,-3.46
2019-01-03T18:26:56.650Z,-3.44
2019-01-03T18:29:29.608Z,-3.45
2019-01-03T18:32:00.685Z,-3.47
2019-01-03T18:34:32.208Z,-3.46
2019-01-03T18:37:03.336Z,-3.49
2019-01-03T18:39:34.620Z,-3.53
2019-01-03T18:42:05.955Z,-3.55
2019-01-03T18:44:39.025Z,-3.58
2019-01-03T18:47:10.668Z,-3.57
2019-01-03T18:49:41.843Z,-3.59
2019-01-03T18:52:13.199Z,-3.58
2019-01-03T18:54:44.287Z,-3.61
2019-01-03T18:57:15.946Z,-3.64
2019-01-03T18:59:47.070Z,-3.65
2019-01-03T19:02:18.365Z,-3.66
2019-01-03T19:04:49.401Z,-3.67
2019-01-03T19:07:20.520Z,-3.68
2019-01-03T19:09:51.869Z,-3.70
2019-01-03T19:12:22.833Z,-3.71
2019-01-03T19:14:54.078Z,-3.68
2019-01-03T19:17:25.153Z,-3.69
2019-01-03T19:19:56.534Z,-3.72
2019-01-03T19:22:27.699Z,-3.76
2019-01-03T19:24:59.493Z,-3.78
2019-01-03T19:27:30.638Z,-3.79
2019-01-03T19:30:02.111Z,-3.77
2019-01-03T19:32:34.613Z,-3.79
2019-01-03T19:35:06.388Z,-3.80
2019-01-03T19:37:37.712Z,-3.82
2019-01-03T19:40:10.692Z,-3.81
2019-01-03T19:42:42.705Z,-3.84
2019-01-03T19:45:13.942Z,-3.88
2019-01-03T19:47:45.313Z,-3.89
2019-01-03T19:50:19.073Z,-3.85
2019-01-03T19:52:50.342Z,-3.83
2019-01-03T19:55:21.556Z,-3.85
2019-01-03T19:57:52.796Z,-3.86
2019-01-03T20:00:25.382Z,-3.90
2019-01-03T20:02:56.570Z,-3.90
2019-01-03T20:05:27.879Z,-3.90
2019-01-03T20:07:59.319Z,-3.90
2019-01-03T20:10:31.694Z,-3.88
2019-01-03T20:13:02.963Z,-3.88
2019-01-03T20:15:35.580Z,-3.85
2019-01-03T20:18:08.758Z,-3.90
2019-01-03T20:20:40.023Z,-3.88
2019-01-03T20:23:11.037Z,-3.86
2019-01-03T20:25:42.365Z,-3.85
2019-01-03T20:28:13.353Z,-3.85
2019-01-03T20:30:45.686Z,-3.89
2019-01-03T20:33:17.141Z,-3.87
2019-01-03T20:35:48.272Z,-3.91
2019-01-03T20:38:19.642Z,-3.88
2019-01-03T20:40:50.827Z,-3.90
2019-01-03T20:43:22.010Z,-3.91
2019-01-03T20:45:53.264Z,-3.81
2019-01-03T20:48:24.583Z,-3.86
2019-01-03T20:50:56.246Z,-3.90
2019-01-03T20:53:27.458Z,-3.90
2019-01-03T20:55:58.527Z,-3.91
2019-01-03T20:58:29.950Z,-3.92
2019-01-03T21:01:01.282Z,-3.94
2019-01-03T21:03:32.358Z,-3.92
2019-01-03T21:06:04.278Z,-3.95
2019-01-03T21:08:36.461Z,-3.90
2019-01-03T21:11:07.710Z,-3.89
2019-01-03T21:13:38.710Z,-3.90
2019-01-03T21:16:09.968Z,-3.89
2019-01-03T21:18:40.999Z,-3.90
2019-01-03T21:21:12.058Z,-3.90
2019-01-03T21:23:43.191Z,-3.95
2019-01-03T21:26:14.533Z,-3.95
2019-01-03T21:28:46.697Z,-3.92
2019-01-03T21:31:18.322Z,-3.91
2019-01-03T21:33:49.583Z,-3.91
2019-01-03T21:36:21.118Z,-3.91
2019-01-03T21:38:52.245Z,-3.92
2019-01-03T21:41:23.345Z,-3.93
2019-01-03T21:43:54.631Z,-3.95
2019-01-03T21:46:25.863Z,-3.95
2019-01-03T21:48:57.015Z,-3.94
2019-01-03T21:51:30.006Z,-3.95
2019-01-03T21:54:01.277Z,-3.94
2019-01-03T21:56:32.620Z,-3.96
2019-01-03T21:59:05.418Z,-3.96
2019-01-03T22:01:36.792Z,-3.99
2019-01-03T22:04:07.965Z,-3.96
2019-01-03T22:06:39.219Z,-4.01
2019-01-03T22:09:11.922Z,-4.01
2019-01-03T22:11:43.570Z,-4.01
2019-01-03T22:14:14.724Z,-4.02
2019-01-03T22:16:45.738Z,-4.04
2019-01-03T22:19:16.807Z,-4.05
2019-01-03T22:21:48.025Z,-4.03
2019-01-03T22:24:19.316Z,-4.03
2019-01-03T22:26:50.441Z,-4.02
2019-01-03T22:29:21.659Z,-4.05
2019-01-03T22:31:53.976Z,-4.09
2019-01-03T22:34:25.058Z,-4.05
2019-01-03T22:36:56.392Z,-4.08
2019-01-03T22:39:27.778Z,-4.07
2019-01-03T22:41:58.974Z,-4.06
2019-01-03T22:44:30.532Z,-4.05
2019-01-03T22:47:01.998Z,-4.04
2019-01-03T22:49:33.042Z,-4.06
2019-01-03T22:52:04.090Z,-4.07
2019-01-03T22:54:35.350Z,-4.05
2019-01-03T22:57:06.694Z,-4.07
2019-01-03T22:59:37.883Z,-4.07
2019-01-03T23:02:09.025Z,-4.13
2019-01-03T23:04:40.553Z,-4.13
2019-01-03T23:07:12.019Z,-4.14
2019-01-03T23:09:43.248Z,-4.13
2019-01-03T23:12:14.720Z,-4.14
2019-01-03T23:14:45.816Z,-4.14
2019-01-03T23:17:17.052Z,-4.15
2019-01-03T23:19:48.150Z,-4.16
2019-01-03T23:22:19.403Z,-4.16
2019-01-03T23:24:51.071Z,-4.17
2019-01-03T23:27:23.010Z,-4.15
2019-01-03T23:29:54.413Z,-4.17
2019-01-03T23:32:26.320Z,-4.17
2019-01-03T23:34:59.252Z,-4.19
2019-01-03T23:37:30.705Z,-4.18
2019-01-03T23:40:03.055Z,-4.20
2019-01-03T23:42:34.365Z,-4.21
2019-01-03T23:45:30.763Z,-4.22
2019-01-03T23:48:02.530Z,-4.23
2019-01-03T23:50:34.959Z,-4.19
2019-01-03T23:53:06.310Z,-4.19
2019-01-03T23:55:45.574Z,-4.22
2019-01-03T23:58:18.706Z,-4.25
